createdAt,value
2018-12-22T00:00:15.914Z,20.60
2018-12-22T00:02:43.375Z,21.42
2018-12-22T00:05:11.239Z,20.68
2018-12-22T00:07:39.319Z,21.00
2018-12-22T00:10:06.653Z,20.77
2018-12-22T00:12:34.003Z,23.30
2018-12-22T00:15:01.302Z,24.18
2018-12-22T00:17:28.675Z,23.67
2018-12-22T00:20:05.285Z,20.62
2018-12-22T00:22:32.715Z,20.27
2018-12-22T00:25:00.008Z,24.30
2018-12-22T00:27:27.401Z,25.43
2018-12-22T00:29:54.720Z,22.52
2018-12-22T00:32:22.096Z,23.25
2018-12-22T00:34:52.244Z,26.33
2018-12-22T00:37:20.308Z,23.20
2018-12-22T00:39:47.721Z,24.45
2018-12-22T00:42:15.088Z,25.12
2018-12-22T00:44:42.433Z,23.18
2018-12-22T00:47:09.796Z,27.82
2018-12-22T00:49:37.087Z,22.85
2018-12-22T00:52:04.977Z,27.02
2018-12-22T00:54:32.898Z,25.50
2018-12-22T00:57:04.175Z,28.62
2018-12-22T00:59:31.522Z,24.05
2018-12-22T01:01:58.846Z,26.42
2018-12-22T01:04:26.279Z,26.52
2018-12-22T01:06:58.085Z,23.30
2018-12-22T01:09:25.537Z,21.65
2018-12-22T01:11:53.353Z,27.22
2018-12-22T01:14:20.740Z,25.48
2018-12-22T01:16:48.118Z,33.40
2018-12-22T01:19:16.064Z,24.07
2018-12-22T01:21:45.424Z,21.12
2018-12-22T01:24:20.292Z,27.55
2018-12-22T01:26:47.624Z,22.77
2018-12-22T01:29:15.224Z,27.02
2018-12-22T01:31:42.524Z,25.52
2018-12-22T01:34:15.045Z,22.02
2018-12-22T01:36:43.291Z,23.67
2018-12-22T01:39:10.648Z,27.15
2018-12-22T01:41:37.985Z,23.87
2018-12-22T01:44:10.000Z,23.38
2018-12-22T01:46:37.278Z,28.70
2018-12-22T01:49:04.603Z,20.02
2018-12-22T01:51:31.916Z,22.37
2018-12-22T01:54:00.233Z,23.38
2018-12-22T01:56:28.094Z,21.25
2018-12-22T01:58:55.460Z,24.47
2018-12-22T02:01:23.279Z,23.45
2018-12-22T02:03:50.583Z,26.33
2018-12-22T02:06:18.794Z,26.12
2018-12-22T02:08:47.122Z,24.50
2018-12-22T02:11:14.468Z,23.32
2018-12-22T02:13:42.532Z,20.82
2018-12-22T02:16:09.888Z,26.57
2018-12-22T02:18:37.257Z,24.32
2018-12-22T02:21:04.982Z,25.88
2018-12-22T02:23:32.736Z,27.15
2018-12-22T02:26:04.789Z,31.80
2018-12-22T02:28:32.203Z,31.30
2018-12-22T02:30:59.560Z,34.50
2018-12-22T02:33:26.884Z,32.40
2018-12-22T02:35:54.348Z,41.45
2018-12-22T02:38:22.579Z,29.10
2018-12-22T02:40:51.364Z,36.23
2018-12-22T02:43:18.671Z,38.33
2018-12-22T02:45:46.378Z,40.58
2018-12-22T02:48:13.762Z,38.78
2018-12-22T02:50:43.027Z,34.33
2018-12-22T02:53:10.485Z,40.70
2018-12-22T02:55:37.946Z,32.15
2018-12-22T02:58:05.294Z,32.23
2018-12-22T03:00:32.606Z,32.67
2018-12-22T03:02:59.940Z,38.83
2018-12-22T03:05:27.327Z,44.05
2018-12-22T03:07:54.636Z,34.78
2018-12-22T03:10:22.193Z,36.80
2018-12-22T03:12:49.516Z,38.95
2018-12-22T03:15:16.924Z,43.38
2018-12-22T03:17:44.800Z,46.53
2018-12-22T03:20:12.693Z,39.60
2018-12-22T03:22:40.717Z,52.17
2018-12-22T03:25:08.120Z,34.18
2018-12-22T03:27:35.708Z,34.73
2018-12-22T03:30:03.219Z,35.40
2018-12-22T03:32:31.147Z,40.40
2018-12-22T03:34:58.499Z,40.05
2018-12-22T03:37:26.026Z,42.38
2018-12-22T03:39:58.188Z,35.73
2018-12-22T03:42:25.897Z,32.45
2018-12-22T03:44:53.367Z,37.38
2018-12-22T03:47:20.697Z,35.10
2018-12-22T03:49:48.035Z,35.05
2018-12-22T03:52:15.319Z,61.40
2018-12-22T03:54:42.608Z,31.33
2018-12-22T03:57:10.179Z,36.77
2018-12-22T03:59:37.564Z,34.10
2018-12-22T04:02:05.001Z,33.78
2018-12-22T04:04:32.324Z,37.50
2018-12-22T04:06:59.652Z,36.80
2018-12-22T04:09:27.259Z,47.03
2018-12-22T04:11:54.680Z,35.28
2018-12-22T04:14:22.603Z,43.25
2018-12-22T04:16:50.638Z,31.33
2018-12-22T04:19:17.975Z,43.58
2018-12-22T04:21:45.267Z,31.12
2018-12-22T04:24:12.646Z,31.77
2018-12-22T04:26:39.993Z,32.85
2018-12-22T04:29:08.012Z,30.52
2018-12-22T04:31:35.368Z,34.23
2018-12-22T04:34:02.842Z,42.58
2018-12-22T04:36:30.429Z,39.38
2018-12-22T04:39:01.954Z,37.20
2018-12-22T04:41:29.440Z,38.17
2018-12-22T04:43:56.780Z,31.50
2018-12-22T04:46:24.111Z,40.80
2018-12-22T04:48:51.426Z,41.15
2018-12-22T04:51:18.683Z,33.15
2018-12-22T04:53:50.094Z,31.25
2018-12-22T04:56:17.389Z,30.25
2018-12-22T04:58:44.703Z,35.43
2018-12-22T05:01:12.031Z,27.48
2018-12-22T05:03:39.364Z,30.20
2018-12-22T05:06:06.693Z,24.82
2018-12-22T05:08:34.000Z,24.70
2018-12-22T05:11:01.311Z,27.30
2018-12-22T05:13:28.640Z,24.32
2018-12-22T05:15:55.937Z,24.18
2018-12-22T05:18:23.236Z,26.17
2018-12-22T05:20:51.162Z,20.15
2018-12-22T05:23:19.297Z,20.02
2018-12-22T05:25:46.961Z,26.05
2018-12-22T05:28:19.431Z,21.30
2018-12-22T05:30:46.789Z,22.13
2018-12-22T05:33:14.198Z,20.30
2018-12-22T05:35:41.588Z,17.65
2018-12-22T05:38:08.888Z,20.10
2018-12-22T05:40:36.184Z,18.92
2018-12-22T05:43:03.471Z,15.60
2018-12-22T05:45:30.765Z,17.80
2018-12-22T05:47:58.164Z,27.90
2018-12-22T05:50:25.473Z,21.30
2018-12-22T05:52:53.035Z,27.05
2018-12-22T05:55:36.826Z,22.00
2018-12-22T05:58:04.128Z,20.88
2018-12-22T06:00:31.420Z,21.02
2018-12-22T06:02:59.339Z,26.23
2018-12-22T06:05:26.665Z,25.65
2018-12-22T06:07:53.984Z,20.45
2018-12-22T06:10:21.320Z,21.70
2018-12-22T06:12:48.653Z,20.20
2018-12-22T06:15:16.113Z,18.87
2018-12-22T06:17:43.985Z,18.42
2018-12-22T06:20:11.305Z,19.87
2018-12-22T06:22:39.244Z,16.97
2018-12-22T06:25:06.618Z,15.45
2018-12-22T06:27:33.947Z,18.17
2018-12-22T06:30:08.906Z,18.85
2018-12-22T06:32:30.576Z,19.57
2018-12-22T06:34:57.996Z,20.27
2018-12-22T06:37:25.956Z,22.15
2018-12-22T06:39:53.605Z,21.00
2018-12-22T06:42:21.534Z,24.00
2018-12-22T06:44:48.889Z,25.80
2018-12-22T06:47:16.928Z,23.25
2018-12-22T06:49:44.194Z,23.02
2018-12-22T06:52:11.492Z,21.75
2018-12-22T06:54:38.879Z,19.65
2018-12-22T06:57:06.139Z,20.75
2018-12-22T06:59:33.400Z,21.62
2018-12-22T07:02:00.699Z,20.30
2018-12-22T07:04:27.951Z,20.65
2018-12-22T07:06:55.257Z,18.50
2018-12-22T07:09:22.587Z,20.30
2018-12-22T07:11:49.968Z,23.07
2018-12-22T07:14:17.410Z,21.45
2018-12-22T07:16:44.791Z,18.00
2018-12-22T07:19:12.108Z,17.42
2018-12-22T07:21:39.388Z,20.27
2018-12-22T07:24:07.112Z,17.92
2018-12-22T07:26:34.449Z,17.55
2018-12-22T07:29:01.843Z,15.23
2018-12-22T07:31:29.115Z,19.12
2018-12-22T07:33:56.397Z,20.70
2018-12-22T07:36:25.264Z,23.30
2018-12-22T07:38:52.758Z,19.15
2018-12-22T07:41:20.124Z,20.88
2018-12-22T07:43:47.430Z,19.10
2018-12-22T07:46:14.725Z,17.30
2018-12-22T07:48:42.088Z,16.75
2018-12-22T07:51:09.380Z,23.12
2018-12-22T07:53:36.687Z,21.52
2018-12-22T07:56:04.091Z,17.65
2018-12-22T07:58:31.386Z,21.00
2018-12-22T08:00:58.779Z,21.07
2018-12-22T08:03:26.085Z,19.35
2018-12-22T08:05:53.405Z,19.00
2018-12-22T08:08:20.712Z,20.45
2018-12-22T08:10:48.032Z,27.05
2018-12-22T08:13:15.337Z,20.77
2018-12-22T08:15:43.151Z,18.00
2018-12-22T08:18:10.642Z,17.90
2018-12-22T08:20:37.928Z,16.65
2018-12-22T08:23:05.220Z,18.80
2018-12-22T08:25:32.529Z,14.85
2018-12-22T08:27:59.845Z,14.47
2018-12-22T08:30:27.164Z,14.30
2018-12-22T08:32:54.426Z,13.93
2018-12-22T08:35:21.727Z,15.80
2018-12-22T08:37:49.468Z,14.03
2018-12-22T08:40:16.762Z,14.33
2018-12-22T08:42:44.062Z,14.33
2018-12-22T08:45:11.369Z,16.10
2018-12-22T08:47:38.680Z,15.15
2018-12-22T08:50:09.366Z,12.68
2018-12-22T08:52:36.128Z,14.45
2018-12-22T08:55:03.413Z,15.50
2018-12-22T08:57:30.675Z,14.98
2018-12-22T08:59:57.968Z,12.90
2018-12-22T09:02:25.252Z,12.90
2018-12-22T09:04:52.533Z,14.28
2018-12-22T09:07:19.813Z,12.80
2018-12-22T09:09:47.055Z,13.25
2018-12-22T09:12:14.362Z,13.70
2018-12-22T09:14:41.682Z,13.38
2018-12-22T09:17:08.989Z,13.75
2018-12-22T09:19:36.246Z,16.57
2018-12-22T09:22:03.639Z,13.18
2018-12-22T09:24:30.932Z,14.38
2018-12-22T09:26:58.229Z,13.32
2018-12-22T09:29:25.504Z,13.43
2018-12-22T09:31:53.036Z,13.30
2018-12-22T09:34:20.364Z,18.37
2018-12-22T09:36:47.654Z,14.30
2018-12-22T09:39:15.020Z,14.47
2018-12-22T09:41:42.309Z,14.40
2018-12-22T09:44:09.612Z,15.48
2018-12-22T09:46:36.881Z,13.70
2018-12-22T09:49:04.175Z,14.60
2018-12-22T09:51:31.467Z,13.72
2018-12-22T09:53:58.793Z,14.00
2018-12-22T09:59:12.277Z,15.58
2018-12-22T10:01:39.668Z,13.45
2018-12-22T10:04:06.989Z,13.98
2018-12-22T10:06:34.319Z,13.60
2018-12-22T10:09:01.798Z,13.28
2018-12-22T10:11:29.120Z,13.35
2018-12-22T10:13:56.624Z,12.63
2018-12-22T10:16:23.864Z,13.10
2018-12-22T10:18:51.145Z,13.53
2018-12-22T10:21:18.430Z,12.10
2018-12-22T10:23:45.720Z,14.28
2018-12-22T10:26:13.041Z,13.60
2018-12-22T10:28:40.352Z,13.25
2018-12-22T10:31:07.698Z,14.80
2018-12-22T10:33:35.395Z,13.93
2018-12-22T10:36:02.741Z,14.55
2018-12-22T10:38:30.016Z,15.75
2018-12-22T10:40:57.748Z,16.93
2018-12-22T10:43:25.088Z,14.35
2018-12-22T10:45:52.420Z,13.00
2018-12-22T10:48:19.741Z,13.90
2018-12-22T10:50:47.076Z,17.02
2018-12-22T10:53:14.417Z,14.58
2018-12-22T10:55:41.784Z,16.70
2018-12-22T10:58:09.167Z,17.30
2018-12-22T11:00:36.728Z,16.25
2018-12-22T11:03:04.033Z,17.60
2018-12-22T11:05:31.353Z,16.73
2018-12-22T11:07:58.803Z,16.02
2018-12-22T11:10:26.557Z,16.57
2018-12-22T11:12:56.165Z,16.85
2018-12-22T11:15:23.475Z,19.87
2018-12-22T11:17:50.820Z,17.15
2018-12-22T11:20:18.162Z,20.32
2018-12-22T11:22:45.471Z,19.40
2018-12-22T11:25:16.092Z,16.52
2018-12-22T11:27:43.442Z,19.15
2018-12-22T11:30:12.529Z,18.65
2018-12-22T11:32:39.811Z,17.65
2018-12-22T11:35:07.171Z,21.25
2018-12-22T11:37:34.465Z,21.95
2018-12-22T11:40:02.065Z,17.65
2018-12-22T11:42:30.005Z,16.37
2018-12-22T11:44:57.408Z,19.70
2018-12-22T11:47:37.260Z,17.75
2018-12-22T11:50:04.989Z,21.73
2018-12-22T11:52:32.951Z,19.20
2018-12-22T11:55:00.351Z,18.10
2018-12-22T11:57:28.733Z,19.00
2018-12-22T12:00:01.602Z,21.33
2018-12-22T12:02:33.425Z,27.40
2018-12-22T12:05:00.817Z,17.27
2018-12-22T12:07:28.211Z,26.55
2018-12-22T12:09:55.531Z,21.80
2018-12-22T12:12:27.216Z,16.07
2018-12-22T12:14:54.552Z,17.98
2018-12-22T12:18:03.422Z,18.77
2018-12-22T12:20:36.811Z,18.50
2018-12-22T12:23:04.184Z,20.95
2018-12-22T12:25:31.623Z,18.70
2018-12-22T12:28:08.338Z,17.92
2018-12-22T12:30:35.697Z,22.65
2018-12-22T12:33:07.531Z,18.57
2018-12-22T12:35:34.944Z,21.33
2018-12-22T12:38:07.244Z,20.82
2018-12-22T12:40:36.368Z,18.85
2018-12-22T12:43:04.347Z,19.45
2018-12-22T12:45:31.708Z,18.37
2018-12-22T12:47:59.185Z,16.52
2018-12-22T12:50:26.537Z,17.48
2018-12-22T12:52:53.837Z,18.23
2018-12-22T12:55:21.154Z,14.95
2018-12-22T13:06:10.423Z,19.23
2018-12-22T13:08:37.721Z,18.35
2018-12-22T13:11:05.052Z,15.45
2018-12-22T13:13:38.459Z,16.85
2018-12-22T13:16:05.777Z,15.55
2018-12-22T13:18:33.080Z,16.17
2018-12-22T13:21:00.811Z,15.80
2018-12-22T13:23:28.136Z,18.27
2018-12-22T13:25:55.457Z,16.30
2018-12-22T13:28:23.033Z,19.60
2018-12-22T13:39:12.597Z,20.12
2018-12-22T13:41:40.041Z,15.58
2018-12-22T13:44:07.356Z,17.80
2018-12-22T13:46:34.671Z,16.20
2018-12-22T13:49:02.416Z,17.77
2018-12-22T13:51:29.976Z,17.35
2018-12-22T13:53:57.594Z,17.75
2018-12-22T13:56:24.916Z,17.10
2018-12-22T13:58:52.242Z,16.85
2018-12-22T14:01:20.420Z,16.07
2018-12-22T14:03:47.732Z,15.28
2018-12-22T14:06:17.436Z,19.90
2018-12-22T14:08:44.789Z,18.60
2018-12-22T14:11:12.080Z,18.82
2018-12-22T14:13:39.410Z,17.35
2018-12-22T14:16:09.665Z,16.50
2018-12-22T14:18:39.241Z,18.05
2018-12-22T14:21:06.528Z,17.95
2018-12-22T14:23:36.903Z,17.82
2018-12-22T14:26:04.188Z,20.80
2018-12-22T14:28:31.479Z,17.55
2018-12-22T14:30:58.773Z,19.70
2018-12-22T14:33:26.077Z,19.87
2018-12-22T14:35:55.625Z,19.10
2018-12-22T14:38:22.929Z,18.20
2018-12-22T14:40:50.248Z,17.77
2018-12-22T14:43:17.558Z,17.77
2018-12-22T14:45:44.896Z,17.17
2018-12-22T14:48:12.175Z,16.85
2018-12-22T14:50:39.516Z,17.87
2018-12-22T14:53:06.797Z,22.50
2018-12-22T14:55:34.213Z,17.35
2018-12-22T14:58:04.433Z,17.20
2018-12-22T15:00:31.776Z,18.67
2018-12-22T15:02:59.186Z,14.95
2018-12-22T15:05:26.503Z,16.35
2018-12-22T15:07:53.816Z,16.97
2018-12-22T15:10:21.305Z,17.40
2018-12-22T15:12:48.585Z,17.27
2018-12-22T15:15:24.174Z,15.32
2018-12-22T15:17:51.541Z,17.27
2018-12-22T15:20:19.932Z,16.60
2018-12-22T15:28:23.613Z,16.95
2018-12-22T15:30:50.896Z,14.40
2018-12-22T15:33:18.224Z,16.48
2018-12-22T15:35:45.511Z,17.70
2018-12-22T15:38:12.863Z,16.57
2018-12-22T15:40:40.173Z,15.32
2018-12-22T15:43:07.531Z,17.10
2018-12-22T15:45:34.854Z,15.30
2018-12-22T15:48:02.164Z,14.15
2018-12-22T15:50:30.384Z,16.00
2018-12-22T15:52:57.923Z,15.35
2018-12-22T15:55:25.254Z,13.55
2018-12-22T15:57:52.580Z,13.90
2018-12-22T16:00:19.914Z,13.32
2018-12-22T16:02:53.058Z,15.30
2018-12-22T16:05:16.638Z,13.80
2018-12-22T16:07:43.995Z,16.25
2018-12-22T16:10:12.008Z,18.73
2018-12-22T16:12:39.483Z,15.43
2018-12-22T16:15:09.249Z,14.63
2018-12-22T16:17:36.593Z,15.68
2018-12-22T16:20:04.309Z,13.40
2018-12-22T16:22:31.589Z,14.05
2018-12-22T16:24:58.892Z,13.75
2018-12-22T16:27:26.212Z,13.72
2018-12-22T16:29:53.507Z,16.87
2018-12-22T16:32:20.816Z,13.93
2018-12-22T16:34:48.135Z,12.90
2018-12-22T16:37:15.504Z,13.45
2018-12-22T16:39:42.842Z,14.00
2018-12-22T16:42:10.156Z,13.90
2018-12-22T16:44:37.432Z,14.50
2018-12-22T16:47:04.757Z,17.07
2018-12-22T16:49:32.192Z,14.63
2018-12-22T16:51:59.464Z,14.50
2018-12-22T16:54:26.765Z,14.85
2018-12-22T16:56:54.156Z,17.23
2018-12-22T16:59:21.484Z,17.05
2018-12-22T17:02:57.083Z,15.83
2018-12-22T17:05:24.424Z,15.25
2018-12-22T17:07:51.761Z,20.05
2018-12-22T17:12:52.657Z,16.57
2018-12-22T17:15:22.498Z,14.55
2018-12-22T17:17:49.310Z,16.52
2018-12-22T17:20:16.733Z,15.63
2018-12-22T17:23:47.614Z,16.45
2018-12-22T17:26:14.910Z,19.48
2018-12-22T17:28:42.223Z,14.53
2018-12-22T17:31:09.552Z,15.60
2018-12-22T17:33:36.818Z,16.32
2018-12-22T17:36:04.364Z,15.35
2018-12-22T17:38:31.739Z,20.72
2018-12-22T17:40:59.765Z,15.48
2018-12-22T17:43:27.273Z,14.83
2018-12-22T17:45:54.658Z,14.35
2018-12-22T17:48:21.955Z,14.73
2018-12-22T17:50:49.309Z,14.05
2018-12-22T17:53:16.634Z,13.60
2018-12-22T17:55:44.058Z,14.20
2018-12-22T17:58:11.378Z,14.30
2018-12-22T18:00:38.642Z,14.07
2018-12-22T18:03:07.162Z,15.00
2018-12-22T18:05:34.579Z,18.12
2018-12-22T18:08:02.038Z,16.17
2018-12-22T18:10:29.500Z,15.88
2018-12-22T18:12:56.939Z,14.03
2018-12-22T18:15:24.492Z,15.83
2018-12-22T18:17:52.310Z,19.17
2018-12-22T18:20:19.922Z,15.45
2018-12-22T18:25:21.035Z,15.70
2018-12-22T18:27:49.761Z,13.10
2018-12-22T18:30:17.143Z,15.08
2018-12-22T18:32:48.790Z,16.00
2018-12-22T18:35:16.309Z,15.65
2018-12-22T18:37:43.672Z,13.90
2018-12-22T18:40:13.119Z,15.18
2018-12-22T18:42:44.769Z,13.98
2018-12-22T18:45:13.698Z,15.98
2018-12-22T18:47:41.107Z,14.15
2018-12-22T18:52:35.498Z,14.55
2018-12-22T18:55:03.470Z,14.87
2018-12-22T18:57:31.112Z,15.40
2018-12-22T18:59:58.518Z,16.20
2018-12-22T19:02:25.886Z,17.73
2018-12-22T19:04:53.201Z,14.90
2018-12-22T19:07:20.552Z,16.27
2018-12-22T19:09:49.495Z,16.23
2018-12-22T19:12:17.652Z,16.07
2018-12-22T19:14:50.531Z,16.10
2018-12-22T19:17:17.848Z,18.10
2018-12-22T19:19:45.169Z,18.65
2018-12-22T19:24:40.110Z,19.98
2018-12-22T19:27:07.490Z,19.50
2018-12-22T19:29:34.784Z,19.60
2018-12-22T19:32:02.760Z,22.15
2018-12-22T19:34:30.327Z,17.92
2018-12-22T19:36:57.797Z,19.50
2018-12-22T19:39:25.189Z,20.90
2018-12-22T19:41:52.618Z,16.85
2018-12-22T19:44:20.725Z,16.77
2018-12-22T19:46:48.148Z,19.62
2018-12-22T19:49:15.536Z,16.55
2018-12-22T19:51:42.843Z,23.98
2018-12-22T19:54:10.243Z,17.32
2018-12-22T19:56:37.604Z,16.67
2018-12-22T19:59:05.568Z,18.80
2018-12-22T20:01:33.213Z,19.05
2018-12-22T20:04:02.199Z,18.60
2018-12-22T20:06:29.861Z,16.27
2018-12-22T20:08:57.625Z,17.87
2018-12-22T20:11:26.036Z,15.25
2018-12-22T20:13:53.539Z,15.30
2018-12-22T20:16:20.912Z,17.07
2018-12-22T20:18:48.975Z,16.10
2018-12-22T20:21:20.750Z,19.85
2018-12-22T20:23:48.943Z,16.37
2018-12-22T20:26:16.282Z,16.55
2018-12-22T20:28:43.650Z,18.35
2018-12-22T20:31:10.974Z,17.32
2018-12-22T20:33:38.356Z,13.85
2018-12-22T20:36:05.787Z,17.00
2018-12-22T20:38:33.206Z,17.87
2018-12-22T20:41:01.895Z,14.00
2018-12-22T20:43:30.302Z,15.63
2018-12-22T20:45:57.671Z,14.87
2018-12-22T20:48:25.101Z,14.70
2018-12-22T20:50:52.496Z,18.10
2018-12-22T20:53:20.775Z,14.58
2018-12-22T20:55:48.512Z,13.58
2018-12-22T20:58:17.138Z,15.83
2018-12-22T21:00:50.217Z,14.28
2018-12-22T21:03:18.923Z,13.72
2018-12-22T21:05:50.091Z,16.27
2018-12-22T21:08:19.068Z,15.50
2018-12-22T21:10:47.498Z,14.47
2018-12-22T21:13:16.147Z,19.77
2018-12-22T21:15:45.859Z,18.02
2018-12-22T21:18:14.165Z,19.85
2018-12-22T21:20:42.443Z,17.92
2018-12-22T21:23:10.710Z,17.45
2018-12-22T21:25:50.732Z,18.37
2018-12-22T21:28:18.254Z,19.55
2018-12-22T21:30:47.259Z,20.08
2018-12-22T21:33:14.677Z,23.18
2018-12-22T21:35:52.699Z,23.45
2018-12-22T21:38:11.433Z,23.50
2018-12-22T21:40:38.788Z,24.52
2018-12-22T21:43:06.160Z,23.57
2018-12-22T21:45:33.692Z,21.55
2018-12-22T21:48:01.169Z,19.82
2018-12-22T21:50:29.579Z,26.40
2018-12-22T21:52:56.963Z,20.40
2018-12-22T21:55:28.522Z,19.62
2018-12-22T21:57:55.990Z,19.50
2018-12-22T22:00:23.609Z,20.92
2018-12-22T22:02:51.006Z,20.43
2018-12-22T22:05:18.327Z,20.25
2018-12-22T22:07:45.680Z,22.13
2018-12-22T22:10:13.169Z,23.35
2018-12-22T22:12:40.607Z,22.42
2018-12-22T22:15:09.065Z,21.23
2018-12-22T22:17:36.494Z,21.17
2018-12-22T22:20:03.941Z,19.32
2018-12-22T22:22:31.326Z,26.00
2018-12-22T22:24:59.685Z,25.40
2018-12-22T22:27:27.075Z,24.52
2018-12-22T22:29:54.485Z,24.65
2018-12-22T22:32:21.855Z,27.75
2018-12-22T22:34:49.224Z,28.45
2018-12-22T22:37:16.502Z,28.05
2018-12-22T22:39:43.855Z,24.72
2018-12-22T22:42:11.216Z,25.23
2018-12-22T22:44:38.605Z,26.62
2018-12-22T22:47:05.960Z,26.27
2018-12-22T22:49:33.277Z,24.18
2018-12-22T22:52:00.690Z,25.48
2018-12-22T22:54:28.036Z,24.07
2018-12-22T22:56:55.485Z,22.48
2018-12-22T22:59:22.882Z,25.50
2018-12-22T23:01:50.175Z,25.68
2018-12-22T23:04:17.527Z,24.05
2018-12-22T23:06:44.849Z,29.90
2018-12-22T23:09:12.864Z,23.12
2018-12-22T23:11:40.180Z,26.40
2018-12-22T23:14:07.676Z,21.25
2018-12-22T23:16:35.049Z,27.10
2018-12-22T23:19:02.387Z,24.70
2018-12-22T23:21:30.407Z,26.15
2018-12-22T23:23:57.903Z,26.37
2018-12-22T23:26:25.348Z,24.45
2018-12-22T23:28:52.691Z,26.27
2018-12-22T23:31:20.096Z,22.65
2018-12-22T23:33:47.486Z,20.35
2018-12-22T23:36:15.401Z,26.55
2018-12-22T23:38:42.783Z,24.55
2018-12-22T23:41:10.105Z,23.60
2018-12-22T23:43:37.442Z,22.25
2018-12-22T23:46:04.825Z,21.50
2018-12-22T23:48:32.148Z,24.18
2018-12-22T23:50:59.494Z,21.80
2018-12-22T23:53:26.826Z,19.62
2018-12-22T23:55:54.206Z,32.90
2018-12-22T23:58:21.552Z,20.82
